Kennicott — WCY2920 — position and weather

sailwx.info

Track history (hours):
 
Tides and Currents Weather Stations Pressure Air Temp Water Temp Dewpoint Dewpoint Depression Visibility Wind Speed Wind Dir Waves Ship Positions

Kennicott

Owner: ALASKA, STATE OF, Anchorage, AK. More information available from US FCC via Universal Licensing System and Coast Guard Vessel Documentation Center.

Last reported at 2018-Dec-16 11:19 UTC. Time now 2019-Feb-23 17:47 UTC.
Position N 54°48' W 130°60'.
Warning: this ship's position is months out of date.

Type: Passenger vessel. MMSI: 368250000.

Date/timePositionNaut miles runAvg speedWind from/ knotsBaromVisibWave heightAir tempDewpointWater temp
2018-Dec-16 11:19N 54°48' W 130°60'412.9
2018-Dec-16 11:00N 54°44' W 130°57'612.3
2018-Dec-16 10:30N 54°42' W 130°47'612.1
2018-Dec-16 10:00N 54°38' W 130°41'713.2
2018-Dec-16 09:30N 54°31' W 130°39'714.6
2018-Dec-16 09:01N 54°24' W 130°37'714.8
2018-Dec-16 08:30N 54°17' W 130°34'713.2
2018-Dec-16 08:00N 54°11' W 130°28'612.6
2018-Dec-16 07:30N 54°06' W 130°22'713.7
2018-Dec-16 07:00N 54°01' W 130°14'713.3
2018-Dec-16 06:30N 53°55' W 130°10'612.3
2018-Dec-16 06:00N 53°51' W 130°02'712.2
2018-Dec-16 05:28N 53°46' W 129°54'7415.0
2018-Dec-16 00:32N 52°40' W 128°57'116.7
2018-Dec-16 00:30N 52°40' W 128°57'815.6
2018-Dec-15 23:58N 52°32' W 128°52'715.5
2018-Dec-15 23:30N 52°25' W 128°50'815.7
2018-Dec-15 23:01N 52°17' W 128°47'816.0
2018-Dec-15 22:31N 52°09' W 128°43'816.1
2018-Dec-15 22:01N 52°02' W 128°39'816.3
2018-Dec-15 21:31N 51°54' W 128°34'816.3
2018-Dec-15 21:00N 51°47' W 128°28'816.0
2018-Dec-15 20:31N 51°40' W 128°22'816.6
2018-Dec-15 20:01N 51°33' W 128°15'816.9
2018-Dec-15 19:30N 51°26' W 128°06'816.9
2018-Dec-15 19:00N 51°21' W 127°56'917.2
2018-Dec-15 18:30N 51°13' W 127°51'817.0
2018-Dec-15 18:00N 51°06' W 127°44'917.4
2018-Dec-15 17:30N 50°59' W 127°35'917.2
2018-Dec-15 17:00N 50°54' W 127°23'917.7
2018-Dec-15 16:30N 50°50' W 127°12'917.3
2018-Dec-15 16:00N 50°45' W 127°00'916.9
2018-Dec-15 15:27N 50°39' W 126°49'815.6
2018-Dec-15 14:58N 50°33' W 126°41'817.3
2018-Dec-15 14:29N 50°30' W 126°29'1217.5
2018-Dec-15 13:47N 50°28' W 126°10'1616.0
2018-Dec-15 12:48N 50°23' W 125°47'1316.6
2018-Dec-15 12:02N 50°20' W 125°27'015.9
2018-Dec-15 12:00N 50°20' W 125°26'815.5
2018-Dec-15 11:30N 50°13' W 125°22'815.6
2018-Dec-15 11:01N 50°06' W 125°18'918.0
2018-Dec-15 10:30N 49°58' W 125°10'816.8
2018-Dec-15 10:00N 49°53' W 125°01'917.6
2018-Dec-15 09:30N 49°46' W 124°51'917.5
2018-Dec-15 09:00N 49°40' W 124°42'917.3
2018-Dec-15 08:31N 49°34' W 124°33'917.0
2018-Dec-15 08:00N 49°28' W 124°23'816.8
2018-Dec-15 07:31N 49°24' W 124°11'917.3
2018-Dec-15 07:00N 49°21' W 123°59'816.4
2018-Dec-15 06:30N 49°18' W 123°48'917.2
2018-Dec-15 06:00N 49°13' W 123°36'816.5
2018-Dec-15 05:31N 49°08' W 123°27'816.5
2018-Dec-15 05:01N 49°02' W 123°18'816.3
2018-Dec-15 04:31N 48°57' W 123°09'816.7
2018-Dec-15 04:01N 48°52' W 122°58'916.6
2018-Dec-15 03:29N 48°46' W 122°48'816.4
2018-Dec-15 03:01N 48°40' W 122°41'510.5
2018-Dec-15 02:30N 48°41' W 122°33'3 2.5
2018-Dec-15 01:20N 48°43' W 122°31'0 0.0
2018-Dec-15 00:38N 48°43' W 122°31'0 0.0
2018-Dec-15 00:26N 48°43' W 122°31'0 0.0
2018-Dec-14 23:50N 48°43' W 122°31'0 0.0
2018-Dec-14 23:29N 48°43' W 122°31'0 0.0
2018-Dec-14 22:41N 48°43' W 122°31'0 0.0
2018-Dec-14 22:26N 48°43' W 122°31'0 0.0
2018-Dec-14 21:59N 48°43' W 122°31'0 0.0
2018-Dec-14 21:29N 48°43' W 122°31'0 0.0
2018-Dec-14 20:56N 48°43' W 122°31'0 0.0
2018-Dec-14 20:29N 48°43' W 122°31'0 0.0
2018-Dec-14 19:59N 48°43' W 122°31'0 0.0
2018-Dec-14 19:29N 48°43' W 122°31'0 0.0
2018-Dec-14 18:59N 48°43' W 122°31'0 0.0
2018-Dec-14 18:29N 48°43' W 122°31'0 0.0
2018-Dec-14 17:59N 48°43' W 122°31'0 0.0
2018-Dec-14 17:29N 48°43' W 122°31'0 0.0
2018-Dec-14 16:56N 48°43' W 122°31'0 0.4
2018-Dec-14 16:30N 48°43' W 122°31'715.0
2018-Dec-14 16:00N 48°37' W 122°37'815.4
2018-Dec-14 15:30N 48°43' W 122°45'815.6
2018-Dec-14 15:01N 48°48' W 122°55'816.2
2018-Dec-14 14:30N 48°52' W 123°05'816.4
2018-Dec-14 14:01N 48°57' W 123°15'816.4
2018-Dec-14 13:30N 49°03' W 123°24'815.8
2018-Dec-14 13:00N 49°08' W 123°33'816.0
2018-Dec-14 12:29N 49°13' W 123°43'816.0
2018-Dec-14 12:00N 49°17' W 123°54'815.6
2018-Dec-14 11:31N 49°21' W 124°03'815.3
2018-Dec-14 11:00N 49°25' W 124°14'815.1
2018-Dec-14 10:29N 49°29' W 124°24'815.2
2018-Dec-14 10:00N 49°34' W 124°32'815.4
2018-Dec-14 09:30N 49°39' W 124°41'815.3
2018-Dec-14 09:00N 49°45' W 124°49'815.2
2018-Dec-14 08:31N 49°50' W 124°57'815.4
2018-Dec-14 08:00N 49°56' W 125°06'713.2
2018-Dec-14 07:30N 50°01' W 125°12'5 9.6
2018-Dec-14 07:00N 50°05' W 125°16'612.5
2018-Dec-14 06:30N 50°10' W 125°22'815.6
2018-Dec-14 06:00N 50°17' W 125°25'1113.5
2018-Dec-14 05:13N 50°22' W 125°39'315.9
2018-Dec-14 05:00N 50°22' W 125°45'1715.6
2018-Dec-14 03:53N 50°28' W 126°11'1415.2
2018-Dec-14 02:58N 50°30' W 126°32'713.9
2018-Dec-14 02:30N 50°34' W 126°41'815.9
2018-Dec-14 01:59N 50°39' W 126°50'816.6
2018-Dec-14 01:30N 50°44' W 126°60'816.3
2018-Dec-14 01:00N 50°49' W 127°10'816.5
2018-Dec-14 00:30N 50°54' W 127°21'816.3
2018-Dec-14 00:00N 50°58' W 127°32'815.4
2018-Dec-13 23:30N 51°04' W 127°40'815.7
2018-Dec-13 23:00N 51°07' W 127°52'611.9
2018-Dec-13 22:30N 51°12' W 127°56'815.4
2018-Dec-13 22:00N 51°19' W 127°52'815.2
2018-Dec-13 21:29N 51°27' W 127°49'15713.7
2018-Dec-13 10:01N 53°45' W 129°53'015.9
2018-Dec-13 10:00N 53°45' W 129°53'816.0
2018-Dec-13 09:30N 53°51' W 130°02'815.6
2018-Dec-13 09:01N 53°57' W 130°12'815.3
2018-Dec-13 08:31N 54°04' W 130°16'815.3
2018-Dec-13 08:01N 54°09' W 130°25'815.2
2018-Dec-13 07:31N 54°16' W 130°32'714.3
2018-Dec-13 07:00N 54°22' W 130°36'815.2
2018-Dec-13 06:30N 54°30' W 130°39'815.4
2018-Dec-13 06:00N 54°37' W 130°43'1015.5
2018-Dec-13 05:21N 54°45' W 130°55'  
2018-Dec-09 13:22N 54°54' W 131°02'616.2
2018-Dec-09 13:00N 54°48' W 130°58'816.0
2018-Dec-09 12:30N 54°42' W 130°49'815.9
2018-Dec-09 12:00N 54°36' W 130°40'815.6
2018-Dec-09 11:30N 54°28' W 130°38'816.9
2018-Dec-09 11:00N 54°20' W 130°35'917.1
2018-Dec-09 10:31N 54°13' W 130°29'713.7
2018-Dec-09 10:00N 54°07' W 130°23'817.0
2018-Dec-09 09:30N 54°00' W 130°13'816.3
2018-Dec-09 09:00N 53°53' W 130°06'917.4
2018-Dec-09 08:30N 53°47' W 129°56'8315.0
2018-Dec-09 02:58N 52°41' W 128°33'714.9
2018-Dec-09 02:30N 52°34' W 128°29'715.3
2018-Dec-09 02:00N 52°27' W 128°28'815.4
2018-Dec-09 01:30N 52°19' W 128°32'713.1
2018-Dec-09 01:00N 52°15' W 128°24'917.3
2018-Dec-09 00:30N 52°13' W 128°10'4 8.8
2018-Dec-09 00:00N 52°09' W 128°08'611.4
2018-Dec-08 23:30N 52°04' W 128°03'612.4
2018-Dec-08 23:00N 52°00' W 127°56'815.1
2018-Dec-08 22:30N 51°53' W 127°56'815.7
2018-Dec-08 22:00N 51°45' W 127°55'815.9
2018-Dec-08 21:31N 51°37' W 127°53'816.4
2018-Dec-08 21:00N 51°29' W 127°51'816.2
2018-Dec-08 20:29N 51°20' W 127°52'816.0
2018-Dec-08 20:00N 51°13' W 127°52'815.7
2018-Dec-08 19:30N 51°06' W 127°45'816.1
2018-Dec-08 19:00N 51°00' W 127°36'815.8
2018-Dec-08 18:30N 50°56' W 127°26'816.9
2018-Dec-08 18:00N 50°51' W 127°15'917.2
2018-Dec-08 17:30N 50°46' W 127°03'917.2
2018-Dec-08 17:00N 50°41' W 126°53'917.7
2018-Dec-08 16:30N 50°35' W 126°42'916.5
2018-Dec-08 15:57N 50°30' W 126°30'1318.4
2018-Dec-08 15:14N 50°28' W 126°09'1717.7
2018-Dec-08 14:17N 50°22' W 125°45'1217.0
2018-Dec-08 13:36N 50°20' W 125°27'114.0
2018-Dec-08 13:30N 50°19' W 125°25'816.4
2018-Dec-08 13:01N 50°12' W 125°22'611.7
2018-Dec-08 12:30N 50°06' W 125°18'510.0
2018-Dec-08 12:00N 50°02' W 125°13'611.9
2018-Dec-08 11:30N 49°57' W 125°08'714.1
2018-Dec-08 11:00N 49°52' W 125°00'714.4
2018-Dec-08 10:30N 49°47' W 124°53'714.4
2018-Dec-08 10:00N 49°42' W 124°45'714.3
2018-Dec-08 09:30N 49°37' W 124°37'714.4
2018-Dec-08 09:00N 49°32' W 124°29'713.8
2018-Dec-08 08:30N 49°27' W 124°21'714.3
2018-Dec-08 08:01N 49°24' W 124°11'714.4
2018-Dec-08 07:30N 49°23' W 124°00'714.6
2018-Dec-08 07:01N 49°21' W 123°50'714.5
2018-Dec-08 06:30N 49°16' W 123°41'714.7
2018-Dec-08 06:00N 49°12' W 123°33'714.5
2018-Dec-08 05:31N 49°06' W 123°25'714.7
2018-Dec-08 05:00N 49°02' W 123°16'714.6
2018-Dec-08 04:31N 48°57' W 123°08'714.5
2018-Dec-08 04:01N 48°52' W 122°60'714.5
2018-Dec-08 03:30N 48°47' W 122°51'714.1
2018-Dec-08 03:00N 48°42' W 122°44'713.7
2018-Dec-08 02:31N 48°38' W 122°36'611.7
2018-Dec-08 01:59N 48°44' W 122°31'0 0.6
2018-Dec-08 01:30N 48°43' W 122°31'0 0.0
2018-Dec-08 01:00N 48°43' W 122°31'0 0.0
2018-Dec-08 00:21N 48°43' W 122°31'0 0.0
2018-Dec-08 00:00N 48°43' W 122°31'0 0.0
2018-Dec-07 23:30N 48°43' W 122°31'0 0.0
2018-Dec-07 23:00N 48°43' W 122°31'0 0.0
2018-Dec-07 22:30N 48°43' W 122°31'0 0.0
2018-Dec-07 21:57N 48°43' W 122°31'0 0.0
2018-Dec-07 21:30N 48°43' W 122°31'0 0.0
2018-Dec-07 21:00N 48°43' W 122°31'0 0.0
2018-Dec-07 20:27N 48°43' W 122°31'0 0.0
2018-Dec-07 19:57N 48°43' W 122°31'0 0.0
2018-Dec-07 19:30N 48°43' W 122°31'0 0.0
2018-Dec-07 18:54N 48°43' W 122°31'0 0.0
2018-Dec-07 18:30N 48°43' W 122°31'0 0.0
2018-Dec-07 18:00N 48°43' W 122°31'0 0.0
2018-Dec-07 17:27N 48°43' W 122°31'0 0.0
2018-Dec-07 16:57N 48°43' W 122°31'0 0.0
2018-Dec-07 16:30N 48°43' W 122°31'0 0.0
2018-Dec-07 15:57N 48°43' W 122°31'0 0.6
2018-Dec-07 15:30N 48°44' W 122°31'611.3
2018-Dec-07 15:00N 48°38' W 122°34'713.0
2018-Dec-07 14:29N 48°41' W 122°44'714.8
2018-Dec-07 14:00N 48°46' W 122°51'816.1
2018-Dec-07 13:30N 48°50' W 123°01'815.7
2018-Dec-07 13:00N 48°55' W 123°10'816.1
2018-Dec-07 12:30N 49°01' W 123°19'815.8
2018-Dec-07 12:00N 49°06' W 123°28'815.6
2018-Dec-07 11:30N 49°12' W 123°36'815.6
2018-Dec-07 11:00N 49°18' W 123°45'815.7
2018-Dec-07 10:30N 49°21' W 123°55'815.9
2018-Dec-07 10:00N 49°24' W 124°07'815.7
2018-Dec-07 09:30N 49°26' W 124°18'815.6
2018-Dec-07 09:00N 49°31' W 124°28'816.3
2018-Dec-07 08:30N 49°37' W 124°36'816.5
2018-Dec-07 08:00N 49°42' W 124°45'816.2
2018-Dec-07 07:30N 49°48' W 124°54'816.3
2018-Dec-07 07:00N 49°54' W 125°03'815.7
2018-Dec-07 06:30N 49°59' W 125°12'611.4
2018-Dec-07 06:00N 50°05' W 125°16'612.2
2018-Dec-07 05:30N 50°10' W 125°22'813.8
2018-Dec-07 04:58N 50°17' W 125°24'712.9
2018-Dec-07 04:27N 50°21' W 125°32'613.7
2018-Dec-07 04:00N 50°22' W 125°41'2013.2
2018-Dec-07 02:29N 50°28' W 126°11'814.5
2018-Dec-07 01:58N 50°30' W 126°23'714.4
2018-Dec-07 01:29N 50°30' W 126°34'612.3
2018-Dec-07 01:00N 50°34' W 126°41'714.3
2018-Dec-07 00:29N 50°39' W 126°50'715.7
2018-Dec-07 00:00N 50°44' W 126°59'815.6
2018-Dec-06 23:31N 50°49' W 127°09'815.5
2018-Dec-06 23:01N 50°53' W 127°19'714.8
2018-Dec-06 22:31N 50°57' W 127°28'713.5
2018-Dec-06 22:00N 51°02' W 127°36'714.4
2018-Dec-06 21:31N 51°06' W 127°45'714.0
2018-Dec-06 21:01N 51°12' W 127°51'815.0
2018-Dec-06 20:30N 51°20' W 127°52'815.9
2018-Dec-06 20:00N 51°28' W 127°51'  
Track history (hours):
 
Tides and Currents Weather Stations Pressure Air Temp Water Temp Dewpoint Dewpoint Depression Visibility Wind Speed Wind Dir Waves Ship Positions

Kennicott

Owner: ALASKA, STATE OF, Anchorage, AK. More information available from US FCC via Universal Licensing System and Coast Guard Vessel Documentation Center.

Last reported at 2018-Dec-16 11:19 UTC. Time now 2019-Feb-23 17:47 UTC.
Position N 54°48' W 130°60'.
Warning: this ship's position is months out of date.

Type: Passenger vessel. MMSI: 368250000.

Date/timePositionNaut miles runAvg speedWind from/ knotsBaromVisibWave heightAir tempDewpointWater temp
2018-Dec-16 11:19N 54°48' W 130°60'412.9
2018-Dec-16 11:00N 54°44' W 130°57'612.3
2018-Dec-16 10:30N 54°42' W 130°47'612.1
2018-Dec-16 10:00N 54°38' W 130°41'713.2
2018-Dec-16 09:30N 54°31' W 130°39'714.6
2018-Dec-16 09:01N 54°24' W 130°37'714.8
2018-Dec-16 08:30N 54°17' W 130°34'713.2
2018-Dec-16 08:00N 54°11' W 130°28'612.6
2018-Dec-16 07:30N 54°06' W 130°22'713.7
2018-Dec-16 07:00N 54°01' W 130°14'713.3
2018-Dec-16 06:30N 53°55' W 130°10'612.3
2018-Dec-16 06:00N 53°51' W 130°02'712.2
2018-Dec-16 05:28N 53°46' W 129°54'7415.0
2018-Dec-16 00:32N 52°40' W 128°57'116.7
2018-Dec-16 00:30N 52°40' W 128°57'815.6
2018-Dec-15 23:58N 52°32' W 128°52'715.5
2018-Dec-15 23:30N 52°25' W 128°50'815.7
2018-Dec-15 23:01N 52°17' W 128°47'816.0
2018-Dec-15 22:31N 52°09' W 128°43'816.1
2018-Dec-15 22:01N 52°02' W 128°39'816.3
2018-Dec-15 21:31N 51°54' W 128°34'816.3
2018-Dec-15 21:00N 51°47' W 128°28'816.0
2018-Dec-15 20:31N 51°40' W 128°22'816.6
2018-Dec-15 20:01N 51°33' W 128°15'816.9
2018-Dec-15 19:30N 51°26' W 128°06'816.9
2018-Dec-15 19:00N 51°21' W 127°56'917.2
2018-Dec-15 18:30N 51°13' W 127°51'817.0
2018-Dec-15 18:00N 51°06' W 127°44'917.4
2018-Dec-15 17:30N 50°59' W 127°35'917.2
2018-Dec-15 17:00N 50°54' W 127°23'917.7
2018-Dec-15 16:30N 50°50' W 127°12'917.3
2018-Dec-15 16:00N 50°45' W 127°00'916.9
2018-Dec-15 15:27N 50°39' W 126°49'815.6
2018-Dec-15 14:58N 50°33' W 126°41'817.3
2018-Dec-15 14:29N 50°30' W 126°29'1217.5
2018-Dec-15 13:47N 50°28' W 126°10'1616.0
2018-Dec-15 12:48N 50°23' W 125°47'1316.6
2018-Dec-15 12:02N 50°20' W 125°27'015.9
2018-Dec-15 12:00N 50°20' W 125°26'815.5
2018-Dec-15 11:30N 50°13' W 125°22'815.6
2018-Dec-15 11:01N 50°06' W 125°18'918.0
2018-Dec-15 10:30N 49°58' W 125°10'816.8
2018-Dec-15 10:00N 49°53' W 125°01'917.6
2018-Dec-15 09:30N 49°46' W 124°51'917.5
2018-Dec-15 09:00N 49°40' W 124°42'917.3
2018-Dec-15 08:31N 49°34' W 124°33'917.0
2018-Dec-15 08:00N 49°28' W 124°23'816.8
2018-Dec-15 07:31N 49°24' W 124°11'917.3
2018-Dec-15 07:00N 49°21' W 123°59'816.4
2018-Dec-15 06:30N 49°18' W 123°48'917.2
2018-Dec-15 06:00N 49°13' W 123°36'816.5
2018-Dec-15 05:31N 49°08' W 123°27'816.5
2018-Dec-15 05:01N 49°02' W 123°18'816.3
2018-Dec-15 04:31N 48°57' W 123°09'816.7
2018-Dec-15 04:01N 48°52' W 122°58'916.6
2018-Dec-15 03:29N 48°46' W 122°48'816.4
2018-Dec-15 03:01N 48°40' W 122°41'510.5
2018-Dec-15 02:30N 48°41' W 122°33'3 2.5
2018-Dec-15 01:20N 48°43' W 122°31'0 0.0
2018-Dec-15 00:38N 48°43' W 122°31'0 0.0
2018-Dec-15 00:26N 48°43' W 122°31'0 0.0
2018-Dec-14 23:50N 48°43' W 122°31'0 0.0
2018-Dec-14 23:29N 48°43' W 122°31'0 0.0
2018-Dec-14 22:41N 48°43' W 122°31'0 0.0
2018-Dec-14 22:26N 48°43' W 122°31'0 0.0
2018-Dec-14 21:59N 48°43' W 122°31'0 0.0
2018-Dec-14 21:29N 48°43' W 122°31'0 0.0
2018-Dec-14 20:56N 48°43' W 122°31'0 0.0
2018-Dec-14 20:29N 48°43' W 122°31'0 0.0
2018-Dec-14 19:59N 48°43' W 122°31'0 0.0
2018-Dec-14 19:29N 48°43' W 122°31'0 0.0
2018-Dec-14 18:59N 48°43' W 122°31'0 0.0
2018-Dec-14 18:29N 48°43' W 122°31'0 0.0
2018-Dec-14 17:59N 48°43' W 122°31'0 0.0
2018-Dec-14 17:29N 48°43' W 122°31'0 0.0
2018-Dec-14 16:56N 48°43' W 122°31'0 0.4
2018-Dec-14 16:30N 48°43' W 122°31'715.0
2018-Dec-14 16:00N 48°37' W 122°37'815.4
2018-Dec-14 15:30N 48°43' W 122°45'815.6
2018-Dec-14 15:01N 48°48' W 122°55'816.2
2018-Dec-14 14:30N 48°52' W 123°05'816.4
2018-Dec-14 14:01N 48°57' W 123°15'816.4
2018-Dec-14 13:30N 49°03' W 123°24'815.8
2018-Dec-14 13:00N 49°08' W 123°33'816.0
2018-Dec-14 12:29N 49°13' W 123°43'816.0
2018-Dec-14 12:00N 49°17' W 123°54'815.6
2018-Dec-14 11:31N 49°21' W 124°03'815.3
2018-Dec-14 11:00N 49°25' W 124°14'815.1
2018-Dec-14 10:29N 49°29' W 124°24'815.2
2018-Dec-14 10:00N 49°34' W 124°32'815.4
2018-Dec-14 09:30N 49°39' W 124°41'815.3
2018-Dec-14 09:00N 49°45' W 124°49'815.2
2018-Dec-14 08:31N 49°50' W 124°57'815.4
2018-Dec-14 08:00N 49°56' W 125°06'713.2
2018-Dec-14 07:30N 50°01' W 125°12'5 9.6
2018-Dec-14 07:00N 50°05' W 125°16'612.5
2018-Dec-14 06:30N 50°10' W 125°22'815.6
2018-Dec-14 06:00N 50°17' W 125°25'1113.5
2018-Dec-14 05:13N 50°22' W 125°39'315.9
2018-Dec-14 05:00N 50°22' W 125°45'1715.6
2018-Dec-14 03:53N 50°28' W 126°11'1415.2
2018-Dec-14 02:58N 50°30' W 126°32'713.9
2018-Dec-14 02:30N 50°34' W 126°41'815.9
2018-Dec-14 01:59N 50°39' W 126°50'816.6
2018-Dec-14 01:30N 50°44' W 126°60'816.3
2018-Dec-14 01:00N 50°49' W 127°10'816.5
2018-Dec-14 00:30N 50°54' W 127°21'816.3
2018-Dec-14 00:00N 50°58' W 127°32'815.4
2018-Dec-13 23:30N 51°04' W 127°40'815.7
2018-Dec-13 23:00N 51°07' W 127°52'611.9
2018-Dec-13 22:30N 51°12' W 127°56'815.4
2018-Dec-13 22:00N 51°19' W 127°52'815.2
2018-Dec-13 21:29N 51°27' W 127°49'15713.7
2018-Dec-13 10:01N 53°45' W 129°53'015.9
2018-Dec-13 10:00N 53°45' W 129°53'816.0
2018-Dec-13 09:30N 53°51' W 130°02'815.6
2018-Dec-13 09:01N 53°57' W 130°12'815.3
2018-Dec-13 08:31N 54°04' W 130°16'815.3
2018-Dec-13 08:01N 54°09' W 130°25'815.2
2018-Dec-13 07:31N 54°16' W 130°32'714.3
2018-Dec-13 07:00N 54°22' W 130°36'815.2
2018-Dec-13 06:30N 54°30' W 130°39'815.4
2018-Dec-13 06:00N 54°37' W 130°43'1015.5
2018-Dec-13 05:21N 54°45' W 130°55'  
2018-Dec-09 13:22N 54°54' W 131°02'616.2
2018-Dec-09 13:00N 54°48' W 130°58'816.0
2018-Dec-09 12:30N 54°42' W 130°49'815.9
2018-Dec-09 12:00N 54°36' W 130°40'815.6
2018-Dec-09 11:30N 54°28' W 130°38'816.9
2018-Dec-09 11:00N 54°20' W 130°35'917.1
2018-Dec-09 10:31N 54°13' W 130°29'713.7
2018-Dec-09 10:00N 54°07' W 130°23'817.0
2018-Dec-09 09:30N 54°00' W 130°13'816.3
2018-Dec-09 09:00N 53°53' W 130°06'917.4
2018-Dec-09 08:30N 53°47' W 129°56'8315.0
2018-Dec-09 02:58N 52°41' W 128°33'714.9
2018-Dec-09 02:30N 52°34' W 128°29'715.3
2018-Dec-09 02:00N 52°27' W 128°28'815.4
2018-Dec-09 01:30N 52°19' W 128°32'713.1
2018-Dec-09 01:00N 52°15' W 128°24'917.3
2018-Dec-09 00:30N 52°13' W 128°10'4 8.8
2018-Dec-09 00:00N 52°09' W 128°08'611.4
2018-Dec-08 23:30N 52°04' W 128°03'612.4
2018-Dec-08 23:00N 52°00' W 127°56'815.1
2018-Dec-08 22:30N 51°53' W 127°56'815.7
2018-Dec-08 22:00N 51°45' W 127°55'815.9
2018-Dec-08 21:31N 51°37' W 127°53'816.4
2018-Dec-08 21:00N 51°29' W 127°51'816.2
2018-Dec-08 20:29N 51°20' W 127°52'816.0
2018-Dec-08 20:00N 51°13' W 127°52'815.7
2018-Dec-08 19:30N 51°06' W 127°45'816.1
2018-Dec-08 19:00N 51°00' W 127°36'815.8
2018-Dec-08 18:30N 50°56' W 127°26'816.9
2018-Dec-08 18:00N 50°51' W 127°15'917.2
2018-Dec-08 17:30N 50°46' W 127°03'917.2
2018-Dec-08 17:00N 50°41' W 126°53'917.7
2018-Dec-08 16:30N 50°35' W 126°42'916.5
2018-Dec-08 15:57N 50°30' W 126°30'1318.4
2018-Dec-08 15:14N 50°28' W 126°09'1717.7
2018-Dec-08 14:17N 50°22' W 125°45'1217.0
2018-Dec-08 13:36N 50°20' W 125°27'114.0
2018-Dec-08 13:30N 50°19' W 125°25'816.4
2018-Dec-08 13:01N 50°12' W 125°22'611.7
2018-Dec-08 12:30N 50°06' W 125°18'510.0
2018-Dec-08 12:00N 50°02' W 125°13'611.9
2018-Dec-08 11:30N 49°57' W 125°08'714.1
2018-Dec-08 11:00N 49°52' W 125°00'714.4
2018-Dec-08 10:30N 49°47' W 124°53'714.4
2018-Dec-08 10:00N 49°42' W 124°45'714.3
2018-Dec-08 09:30N 49°37' W 124°37'714.4
2018-Dec-08 09:00N 49°32' W 124°29'713.8
2018-Dec-08 08:30N 49°27' W 124°21'714.3
2018-Dec-08 08:01N 49°24' W 124°11'714.4
2018-Dec-08 07:30N 49°23' W 124°00'714.6
2018-Dec-08 07:01N 49°21' W 123°50'714.5
2018-Dec-08 06:30N 49°16' W 123°41'714.7
2018-Dec-08 06:00N 49°12' W 123°33'714.5
2018-Dec-08 05:31N 49°06' W 123°25'714.7
2018-Dec-08 05:00N 49°02' W 123°16'714.6
2018-Dec-08 04:31N 48°57' W 123°08'714.5
2018-Dec-08 04:01N 48°52' W 122°60'714.5
2018-Dec-08 03:30N 48°47' W 122°51'714.1
2018-Dec-08 03:00N 48°42' W 122°44'713.7
2018-Dec-08 02:31N 48°38' W 122°36'611.7
2018-Dec-08 01:59N 48°44' W 122°31'0 0.6
2018-Dec-08 01:30N 48°43' W 122°31'0 0.0
2018-Dec-08 01:00N 48°43' W 122°31'0 0.0
2018-Dec-08 00:21N 48°43' W 122°31'0 0.0
2018-Dec-08 00:00N 48°43' W 122°31'0 0.0
2018-Dec-07 23:30N 48°43' W 122°31'0 0.0
2018-Dec-07 23:00N 48°43' W 122°31'0 0.0
2018-Dec-07 22:30N 48°43' W 122°31'0 0.0
2018-Dec-07 21:57N 48°43' W 122°31'0 0.0
2018-Dec-07 21:30N 48°43' W 122°31'0 0.0
2018-Dec-07 21:00N 48°43' W 122°31'0 0.0
2018-Dec-07 20:27N 48°43' W 122°31'0 0.0
2018-Dec-07 19:57N 48°43' W 122°31'0 0.0
2018-Dec-07 19:30N 48°43' W 122°31'0 0.0
2018-Dec-07 18:54N 48°43' W 122°31'0 0.0
2018-Dec-07 18:30N 48°43' W 122°31'0 0.0
2018-Dec-07 18:00N 48°43' W 122°31'0 0.0
2018-Dec-07 17:27N 48°43' W 122°31'0 0.0
2018-Dec-07 16:57N 48°43' W 122°31'0 0.0
2018-Dec-07 16:30N 48°43' W 122°31'0 0.0
2018-Dec-07 15:57N 48°43' W 122°31'0 0.6
2018-Dec-07 15:30N 48°44' W 122°31'611.3
2018-Dec-07 15:00N 48°38' W 122°34'713.0
2018-Dec-07 14:29N 48°41' W 122°44'714.8
2018-Dec-07 14:00N 48°46' W 122°51'816.1
2018-Dec-07 13:30N 48°50' W 123°01'815.7
2018-Dec-07 13:00N 48°55' W 123°10'816.1
2018-Dec-07 12:30N 49°01' W 123°19'815.8
2018-Dec-07 12:00N 49°06' W 123°28'815.6
2018-Dec-07 11:30N 49°12' W 123°36'815.6
2018-Dec-07 11:00N 49°18' W 123°45'815.7
2018-Dec-07 10:30N 49°21' W 123°55'815.9
2018-Dec-07 10:00N 49°24' W 124°07'815.7
2018-Dec-07 09:30N 49°26' W 124°18'815.6
2018-Dec-07 09:00N 49°31' W 124°28'816.3
2018-Dec-07 08:30N 49°37' W 124°36'816.5
2018-Dec-07 08:00N 49°42' W 124°45'816.2
2018-Dec-07 07:30N 49°48' W 124°54'816.3
2018-Dec-07 07:00N 49°54' W 125°03'815.7
2018-Dec-07 06:30N 49°59' W 125°12'611.4
2018-Dec-07 06:00N 50°05' W 125°16'612.2
2018-Dec-07 05:30N 50°10' W 125°22'813.8
2018-Dec-07 04:58N 50°17' W 125°24'712.9
2018-Dec-07 04:27N 50°21' W 125°32'613.7
2018-Dec-07 04:00N 50°22' W 125°41'2013.2
2018-Dec-07 02:29N 50°28' W 126°11'814.5
2018-Dec-07 01:58N 50°30' W 126°23'714.4
2018-Dec-07 01:29N 50°30' W 126°34'612.3
2018-Dec-07 01:00N 50°34' W 126°41'714.3
2018-Dec-07 00:29N 50°39' W 126°50'715.7
2018-Dec-07 00:00N 50°44' W 126°59'815.6
2018-Dec-06 23:31N 50°49' W 127°09'815.5
2018-Dec-06 23:01N 50°53' W 127°19'714.8
2018-Dec-06 22:31N 50°57' W 127°28'713.5
2018-Dec-06 22:00N 51°02' W 127°36'714.4
2018-Dec-06 21:31N 51°06' W 127°45'714.0
2018-Dec-06 21:01N 51°12' W 127°51'815.0
2018-Dec-06 20:30N 51°20' W 127°52'815.9
2018-Dec-06 20:00N 51°28' W 127°51'  

Dump ship's entire track history